createdAt,value
2019-03-16T00:00:45.896Z,11.44
2019-03-16T00:03:15.660Z,11.25
2019-03-16T00:05:45.299Z,11.34
2019-03-16T00:08:15.062Z,11.38
2019-03-16T00:10:44.829Z,11.54
2019-03-16T00:13:16.058Z,11.34
2019-03-16T00:15:46.034Z,11.19
2019-03-16T00:18:15.921Z,11.21
2019-03-16T00:20:45.564Z,11.33
2019-03-16T00:23:15.196Z,11.38
2019-03-16T00:25:44.837Z,11.46
2019-03-16T00:28:14.720Z,11.42
2019-03-16T00:30:44.359Z,11.32
2019-03-16T00:33:14.239Z,11.57
2019-03-16T00:35:43.999Z,11.30
2019-03-16T00:38:13.764Z,11.51
2019-03-16T00:40:44.967Z,11.50
2019-03-16T00:43:14.604Z,11.51
2019-03-16T00:45:44.254Z,11.70
2019-03-16T00:48:13.887Z,11.52
2019-03-16T00:50:43.652Z,11.48
2019-03-16T00:53:13.529Z,11.57
2019-03-16T00:55:43.174Z,11.59
2019-03-16T00:58:12.819Z,11.33
2019-03-16T01:00:42.458Z,11.36
2019-03-16T01:03:12.344Z,11.45
2019-03-16T01:05:41.982Z,11.53
2019-03-16T01:08:11.743Z,11.38
2019-03-16T01:10:41.622Z,11.23
2019-03-16T01:13:11.268Z,11.17
2019-03-16T01:15:41.275Z,11.35
2019-03-16T01:18:10.907Z,11.28
2019-03-16T01:20:40.789Z,11.40
2019-03-16T01:23:10.427Z,11.31
2019-03-16T01:25:40.312Z,11.33
2019-03-16T01:28:09.954Z,11.30
2019-03-16T01:30:39.599Z,11.12
2019-03-16T01:33:09.354Z,11.04
2019-03-16T01:35:39.117Z,11.03
2019-03-16T01:38:08.883Z,11.09
2019-03-16T01:40:38.523Z,11.17
2019-03-16T01:43:08.283Z,11.41
2019-03-16T01:45:37.924Z,11.28
2019-03-16T01:48:07.692Z,11.21
2019-03-16T01:50:37.330Z,11.25
2019-03-16T01:53:07.095Z,11.29
2019-03-16T01:55:36.855Z,11.34
2019-03-16T01:58:06.494Z,11.45
2019-03-16T02:00:36.134Z,11.16
2019-03-16T02:03:05.781Z,11.25
2019-03-16T02:05:35.419Z,11.35
2019-03-16T02:08:05.056Z,11.17
2019-03-16T02:10:34.699Z,11.32
2019-03-16T02:13:04.345Z,11.21
2019-03-16T02:15:34.102Z,11.17
2019-03-16T02:18:03.742Z,11.09
2019-03-16T02:20:33.392Z,11.33
2019-03-16T02:23:03.025Z,11.21
2019-03-16T02:25:32.787Z,11.18
2019-03-16T02:28:02.555Z,11.14
2019-03-16T02:30:32.192Z,11.16
2019-03-16T02:33:12.622Z,11.33
2019-03-16T02:35:33.402Z,11.46
2019-03-16T02:38:03.164Z,11.37
2019-03-16T02:40:32.799Z,11.42
2019-03-16T02:43:02.451Z,11.35
2019-03-16T02:45:32.082Z,11.28
2019-03-16T02:48:01.729Z,11.41
2019-03-16T02:50:31.364Z,11.47
2019-03-16T02:53:01.011Z,11.25
2019-03-16T02:55:30.770Z,11.39
2019-03-16T02:58:00.425Z,11.29
2019-03-16T03:00:30.055Z,11.26
2019-03-16T03:02:59.930Z,11.11
2019-03-16T03:05:29.579Z,11.08
2019-03-16T03:07:59.218Z,11.33
2019-03-16T03:10:28.857Z,11.24
2019-03-16T03:12:58.499Z,11.26
2019-03-16T03:15:28.262Z,11.28
2019-03-16T03:17:58.020Z,11.27
2019-03-16T03:20:27.668Z,10.99
2019-03-16T03:22:57.544Z,11.11
2019-03-16T03:25:27.188Z,11.21
2019-03-16T03:27:56.952Z,11.18
2019-03-16T03:30:26.961Z,10.90
2019-03-16T03:32:56.598Z,11.08
2019-03-16T03:35:29.185Z,10.92
2019-03-16T03:37:57.702Z,10.97
2019-03-16T03:40:27.438Z,11.03
2019-03-16T03:42:57.084Z,10.93
2019-03-16T03:45:26.719Z,10.94
2019-03-16T03:47:56.366Z,11.03
2019-03-16T03:50:26.023Z,11.07
2019-03-16T03:52:55.645Z,11.18
2019-03-16T03:55:25.303Z,11.05
2019-03-16T03:57:54.929Z,11.03
2019-03-16T04:00:24.699Z,11.04
2019-03-16T04:02:54.332Z,10.91
2019-03-16T04:05:23.977Z,10.83
2019-03-16T04:07:53.737Z,10.86
2019-03-16T04:10:23.627Z,10.84
2019-03-16T04:12:53.353Z,10.85
2019-03-16T04:15:23.013Z,10.87
2019-03-16T04:17:52.667Z,10.84
2019-03-16T04:20:22.427Z,10.77
2019-03-16T04:22:52.064Z,10.73
2019-03-16T04:25:21.710Z,10.71
2019-03-16T04:27:51.463Z,10.57
2019-03-16T04:30:21.226Z,10.81
2019-03-16T04:32:50.871Z,10.91
2019-03-16T04:35:20.511Z,10.56
2019-03-16T04:37:50.151Z,10.66
2019-03-16T04:40:19.795Z,10.81
2019-03-16T04:42:49.437Z,10.76
2019-03-16T04:45:18.959Z,10.80
2019-03-16T04:47:48.720Z,10.95
2019-03-16T04:50:18.363Z,10.74
2019-03-16T04:52:51.034Z,10.72
2019-03-16T04:55:19.444Z,10.86
2019-03-16T04:57:49.083Z,10.69
2019-03-16T05:00:18.726Z,11.02
2019-03-16T05:02:48.368Z,11.07
2019-03-16T05:05:18.014Z,10.97
2019-03-16T05:07:47.769Z,11.08
2019-03-16T05:10:17.413Z,11.07
2019-03-16T05:12:48.733Z,10.96
2019-03-16T05:15:20.054Z,10.95
2019-03-16T05:17:49.708Z,10.83
2019-03-16T05:20:19.339Z,10.87
2019-03-16T05:22:48.979Z,10.83
2019-03-16T05:25:18.629Z,10.71
2019-03-16T05:27:48.390Z,10.92
2019-03-16T05:30:18.142Z,10.71
2019-03-16T05:32:47.905Z,10.81
2019-03-16T05:35:17.546Z,10.77
2019-03-16T05:37:47.188Z,10.83
2019-03-16T05:42:51.276Z,10.67
2019-03-16T05:45:21.033Z,10.52
2019-03-16T05:47:50.676Z,10.75
2019-03-16T05:50:22.058Z,10.58
2019-03-16T05:52:51.640Z,10.71
2019-03-16T05:55:21.280Z,10.70
2019-03-16T05:57:51.169Z,10.84
2019-03-16T06:00:20.808Z,10.74
2019-03-16T06:02:50.570Z,10.58
2019-03-16T06:05:20.214Z,10.49
2019-03-16T06:07:49.849Z,10.69
2019-03-16T06:10:19.616Z,10.73
2019-03-16T06:12:49.254Z,10.66
2019-03-16T06:15:18.918Z,10.58
2019-03-16T06:17:48.546Z,10.52
2019-03-16T06:20:18.180Z,10.50
2019-03-16T06:22:48.193Z,10.49
2019-03-16T06:25:17.822Z,10.79
2019-03-16T06:27:47.466Z,10.88
2019-03-16T06:30:20.680Z,11.03
2019-03-16T06:32:49.144Z,10.85
2019-03-16T06:35:24.959Z,10.65
2019-03-16T06:37:50.837Z,10.76
2019-03-16T06:40:20.473Z,10.67
2019-03-16T06:42:50.230Z,10.59
2019-03-16T06:45:19.873Z,10.72
2019-03-16T06:47:49.519Z,10.72
2019-03-16T06:50:19.158Z,10.84
2019-03-16T06:52:48.795Z,10.80
2019-03-16T06:55:18.559Z,10.78
2019-03-16T06:57:48.203Z,10.73
2019-03-16T07:00:19.039Z,10.71
2019-03-16T07:02:48.692Z,10.73
2019-03-16T07:05:21.998Z,10.58
2019-03-16T07:07:49.646Z,10.64
2019-03-16T07:10:19.405Z,10.76
2019-03-16T07:12:49.050Z,10.65
2019-03-16T07:15:18.689Z,10.69
2019-03-16T07:17:48.335Z,10.54
2019-03-16T07:20:18.103Z,10.50
2019-03-16T07:22:47.747Z,10.77
2019-03-16T07:25:17.379Z,10.54
2019-03-16T07:27:47.145Z,10.78
2019-03-16T07:30:17.026Z,10.84
2019-03-16T07:32:46.902Z,10.57
2019-03-16T07:35:16.539Z,10.51
2019-03-16T07:37:46.200Z,10.45
2019-03-16T07:40:16.066Z,10.30
2019-03-16T07:42:45.705Z,10.24
2019-03-16T07:45:15.827Z,10.23
2019-03-16T07:47:45.476Z,10.02
2019-03-16T07:50:15.474Z,9.47
2019-03-16T07:52:45.241Z,9.82
2019-03-16T07:55:14.883Z,9.65
2019-03-16T07:57:44.639Z,9.88
2019-03-16T08:00:14.404Z,10.02
2019-03-16T08:02:44.161Z,9.99
2019-03-16T08:05:18.595Z,9.76
2019-03-16T08:07:45.126Z,9.97
2019-03-16T08:10:14.889Z,9.77
2019-03-16T08:12:44.644Z,9.91
2019-03-16T08:15:14.411Z,9.65
2019-03-16T08:17:44.117Z,9.82
2019-03-16T08:20:13.696Z,9.62
2019-03-16T08:22:43.346Z,9.75
2019-03-16T08:25:12.976Z,9.62
2019-03-16T08:27:53.706Z,9.50
2019-03-16T08:30:14.060Z,9.64
2019-03-16T08:32:44.666Z,9.51
2019-03-16T08:35:14.305Z,9.57
2019-03-16T08:37:43.945Z,9.63
2019-03-16T08:40:13.582Z,9.84
2019-03-16T08:42:43.232Z,9.63
2019-03-16T08:45:12.985Z,9.86
2019-03-16T08:47:42.629Z,9.75
2019-03-16T08:50:12.513Z,9.98
2019-03-16T08:52:42.156Z,10.10
2019-03-16T08:55:12.041Z,10.10
2019-03-16T08:57:42.894Z,10.12
2019-03-16T09:00:14.559Z,10.05
2019-03-16T09:02:44.197Z,9.92
2019-03-16T09:05:13.851Z,10.31
2019-03-16T09:07:43.600Z,10.38
2019-03-16T09:10:13.254Z,10.57
2019-03-16T09:12:54.212Z,10.36
2019-03-16T09:15:16.133Z,10.67
2019-03-16T09:17:45.771Z,10.47
2019-03-16T09:20:15.529Z,10.82
2019-03-16T09:22:45.182Z,10.66
2019-03-16T09:25:14.817Z,10.80
2019-03-16T09:27:44.573Z,10.83
2019-03-16T09:30:16.140Z,11.08
2019-03-16T09:32:45.903Z,10.98
2019-03-16T09:35:15.541Z,11.08
2019-03-16T09:37:45.301Z,10.91
2019-03-16T09:40:14.952Z,11.07
2019-03-16T09:42:44.587Z,11.07
2019-03-16T09:45:14.587Z,10.82
2019-03-16T09:47:44.231Z,10.71
2019-03-16T09:50:13.992Z,10.58
2019-03-16T09:52:43.636Z,10.57
2019-03-16T09:55:14.008Z,10.63
2019-03-16T09:57:43.641Z,10.51
2019-03-16T10:00:16.999Z,10.26
2019-03-16T10:02:46.661Z,10.33
2019-03-16T10:05:16.292Z,10.72
2019-03-16T10:07:45.920Z,10.72
2019-03-16T10:10:16.280Z,10.62
2019-03-16T10:12:46.169Z,10.44
2019-03-16T10:15:16.178Z,10.73
2019-03-16T10:17:45.925Z,10.97
2019-03-16T10:20:15.808Z,10.99
2019-03-16T10:22:45.448Z,11.18
2019-03-16T10:25:15.091Z,11.19
2019-03-16T10:27:44.975Z,11.49
2019-03-16T10:30:15.707Z,11.44
2019-03-16T10:32:45.573Z,11.43
2019-03-16T10:35:15.222Z,11.52
2019-03-16T10:37:44.859Z,11.67
2019-03-16T10:40:15.245Z,11.45
2019-03-16T10:42:44.866Z,11.15
2019-03-16T10:45:14.520Z,11.30
2019-03-16T10:47:44.405Z,11.49
2019-03-16T10:50:17.035Z,10.97
2019-03-16T10:52:46.920Z,11.32
2019-03-16T10:55:16.557Z,11.10
2019-03-16T10:57:46.193Z,11.05
2019-03-16T11:00:17.402Z,11.22
2019-03-16T11:02:47.171Z,10.94
2019-03-16T11:05:16.914Z,11.34
2019-03-16T11:07:46.560Z,11.60
2019-03-16T11:10:16.325Z,11.41
2019-03-16T11:12:46.080Z,11.35
2019-03-16T11:15:15.848Z,11.39
2019-03-16T11:17:45.732Z,11.65
2019-03-16T11:20:17.775Z,11.42
2019-03-16T11:22:47.414Z,11.21
2019-03-16T11:25:17.171Z,11.39
2019-03-16T11:27:46.930Z,11.58
2019-03-16T11:30:18.492Z,11.18
2019-03-16T11:32:48.140Z,11.72
2019-03-16T11:35:17.787Z,11.74
2019-03-16T11:37:47.418Z,11.72
2019-03-16T11:40:20.182Z,12.00
2019-03-16T11:42:49.953Z,12.24
2019-03-16T11:45:19.582Z,12.01
2019-03-16T11:47:49.349Z,12.14
2019-03-16T11:50:18.982Z,12.22
2019-03-16T11:52:48.629Z,12.18
2019-03-16T11:55:18.270Z,12.22
2019-03-16T11:57:47.912Z,12.15
2019-03-16T12:00:52.472Z,11.96
2019-03-16T12:03:22.118Z,12.00
2019-03-16T12:05:51.878Z,11.73
2019-03-16T12:08:21.545Z,11.95
2019-03-16T12:10:51.159Z,11.51
2019-03-16T12:13:21.043Z,11.69
2019-03-16T12:15:50.678Z,11.38
2019-03-16T12:18:20.440Z,11.56
2019-03-16T12:20:50.084Z,11.45
2019-03-16T12:23:19.725Z,11.37
2019-03-16T12:25:49.370Z,11.56
2019-03-16T12:28:19.011Z,11.45
2019-03-16T12:30:48.767Z,11.39
2019-03-16T12:33:18.531Z,11.28
2019-03-16T12:35:48.411Z,11.08
2019-03-16T12:38:18.057Z,11.05
2019-03-16T12:40:47.701Z,11.20
2019-03-16T12:43:17.456Z,11.48
2019-03-16T12:45:47.103Z,11.27
2019-03-16T12:48:16.983Z,11.46
2019-03-16T12:50:46.743Z,11.59
2019-03-16T12:53:16.384Z,11.13
2019-03-16T12:55:46.151Z,11.54
2019-03-16T12:58:15.865Z,11.66
2019-03-16T13:00:45.674Z,11.23
2019-03-16T13:03:15.316Z,11.49
2019-03-16T13:05:44.960Z,11.22
2019-03-16T13:08:14.598Z,11.59
2019-03-16T13:10:44.479Z,11.76
2019-03-16T13:13:14.123Z,11.59
2019-03-16T13:15:43.763Z,11.55
2019-03-16T13:18:13.399Z,11.50
2019-03-16T13:20:43.171Z,11.54
2019-03-16T13:23:12.801Z,11.45
2019-03-16T13:25:42.445Z,11.36
2019-03-16T13:28:12.445Z,11.38
2019-03-16T13:30:42.088Z,11.12
2019-03-16T13:33:11.849Z,11.43
2019-03-16T13:35:41.492Z,11.49
2019-03-16T13:38:11.133Z,11.25
2019-03-16T13:40:40.898Z,11.18
2019-03-16T13:43:10.540Z,11.35
2019-03-16T13:45:40.179Z,11.25
2019-03-16T13:48:09.823Z,11.07
2019-03-16T13:50:39.463Z,11.17
2019-03-16T13:53:09.466Z,11.46
2019-03-16T13:55:39.222Z,11.63
2019-03-16T13:58:08.869Z,11.70
2019-03-16T14:00:38.509Z,11.68
2019-03-16T14:03:08.509Z,11.79
2019-03-16T14:05:38.151Z,11.89
2019-03-16T14:08:07.916Z,11.81
2019-03-16T14:10:37.813Z,11.92
2019-03-16T14:13:07.554Z,11.97
2019-03-16T14:15:37.203Z,11.88
2019-03-16T14:18:06.841Z,12.18
2019-03-16T14:20:36.480Z,12.21
2019-03-16T14:23:06.362Z,12.03
2019-03-16T14:25:36.365Z,12.15
2019-03-16T14:28:06.252Z,11.83
2019-03-16T14:30:41.346Z,12.09
2019-03-16T14:33:07.338Z,12.12
2019-03-16T14:35:36.971Z,11.94
2019-03-16T14:38:06.612Z,12.32
2019-03-16T14:40:36.643Z,12.61
2019-03-16T14:43:06.131Z,12.48
2019-03-16T14:45:36.016Z,12.03
2019-03-16T14:48:05.659Z,12.24
2019-03-16T14:50:35.298Z,12.48
2019-03-16T14:53:05.192Z,12.43
2019-03-16T14:55:34.823Z,12.31
2019-03-16T14:58:04.584Z,12.11
2019-03-16T15:00:38.751Z,12.05
2019-03-16T15:03:05.551Z,12.76
2019-03-16T15:05:35.329Z,12.72
2019-03-16T15:08:04.958Z,12.84
2019-03-16T15:10:34.595Z,13.01
2019-03-16T15:13:04.247Z,12.65
2019-03-16T15:15:34.121Z,12.89
2019-03-16T15:18:03.891Z,12.95
2019-03-16T15:20:34.965Z,13.33
2019-03-16T15:23:04.840Z,13.32
2019-03-16T15:25:34.489Z,13.43
2019-03-16T15:28:04.133Z,13.45
2019-03-16T15:30:33.765Z,13.26
2019-03-16T15:33:03.663Z,13.04
2019-03-16T15:35:33.290Z,13.64
2019-03-16T15:38:02.932Z,14.55
2019-03-16T15:40:32.695Z,14.53
2019-03-16T15:43:02.341Z,14.44
2019-03-16T15:45:32.937Z,14.21
2019-03-16T15:48:02.706Z,14.37
2019-03-16T15:50:32.340Z,14.52
2019-03-16T15:53:01.978Z,14.43
2019-03-16T15:55:31.625Z,14.73
2019-03-16T15:58:07.839Z,14.84
2019-03-16T16:00:32.710Z,14.98
2019-03-16T16:03:02.471Z,15.51
2019-03-16T16:05:32.233Z,15.85
2019-03-16T16:08:01.867Z,15.33
2019-03-16T16:10:31.521Z,15.61
2019-03-16T16:13:01.154Z,15.37
2019-03-16T16:15:30.795Z,14.97
2019-03-16T16:18:00.564Z,14.71
2019-03-16T16:20:30.316Z,14.82
2019-03-16T16:22:59.954Z,14.84
2019-03-16T16:25:29.600Z,14.33
2019-03-16T16:27:59.243Z,14.34
2019-03-16T16:30:29.127Z,14.13
2019-03-16T16:32:58.770Z,14.17
2019-03-16T16:35:28.418Z,14.01
2019-03-16T16:37:58.047Z,13.60
2019-03-16T16:40:27.687Z,13.69
2019-03-16T16:42:57.576Z,13.55
2019-03-16T16:45:27.212Z,13.57
2019-03-16T16:47:56.978Z,13.14
2019-03-16T16:50:27.348Z,13.13
2019-03-16T16:52:56.985Z,13.12
2019-03-16T16:55:26.630Z,12.94
2019-03-16T16:57:56.384Z,12.95
2019-03-16T17:00:27.823Z,12.82
2019-03-16T17:02:57.465Z,12.71
2019-03-16T17:05:27.117Z,12.71
2019-03-16T17:07:56.748Z,12.59
2019-03-16T17:10:26.384Z,12.46
2019-03-16T17:12:55.909Z,12.46
2019-03-16T17:15:25.916Z,12.40
2019-03-16T17:17:55.557Z,12.17
2019-03-16T17:20:25.199Z,12.11
2019-03-16T17:22:54.836Z,12.08
2019-03-16T17:25:24.506Z,12.01
2019-03-16T17:27:54.624Z,11.94
2019-03-16T17:30:28.446Z,11.86
2019-03-16T17:32:58.083Z,11.62
2019-03-16T17:35:27.724Z,11.53
2019-03-16T17:37:57.608Z,11.50
2019-03-16T17:40:27.250Z,11.58
2019-03-16T17:42:56.892Z,11.49
2019-03-16T17:45:26.771Z,11.31
2019-03-16T17:47:56.413Z,11.27
2019-03-16T17:50:26.172Z,11.27
2019-03-16T17:52:55.822Z,11.14
2019-03-16T17:55:25.581Z,11.11
2019-03-16T17:57:55.219Z,11.03
2019-03-16T18:00:24.981Z,10.98
2019-03-16T18:02:54.859Z,10.91
2019-03-16T18:05:24.501Z,10.86
2019-03-16T18:07:54.395Z,10.84
2019-03-16T18:10:24.035Z,10.69
2019-03-16T18:12:53.682Z,10.62
2019-03-16T18:15:23.429Z,10.63
2019-03-16T18:17:53.077Z,10.57
2019-03-16T18:20:22.714Z,10.43
2019-03-16T18:22:52.483Z,10.33
2019-03-16T18:25:22.002Z,10.26
2019-03-16T18:27:51.772Z,10.18
2019-03-16T18:30:23.567Z,10.05
2019-03-16T18:32:53.212Z,9.93
2019-03-16T18:35:22.842Z,9.89
2019-03-16T18:37:52.725Z,9.80
2019-03-16T18:40:22.370Z,9.75
2019-03-16T18:42:52.007Z,9.68
2019-03-16T18:45:28.371Z,9.62
2019-03-16T18:47:58.223Z,9.57
2019-03-16T18:50:27.895Z,9.56
2019-03-16T18:52:57.531Z,9.43
2019-03-16T18:55:27.173Z,9.37
2019-03-16T18:57:57.065Z,9.30
2019-03-16T19:00:26.823Z,9.29
2019-03-16T19:02:56.702Z,9.33
2019-03-16T19:05:27.665Z,9.32
2019-03-16T19:07:57.514Z,9.17
2019-03-16T19:10:27.306Z,9.13
2019-03-16T19:12:57.076Z,9.18
2019-03-16T19:15:26.825Z,9.23
2019-03-16T19:17:59.058Z,9.28
2019-03-16T19:20:27.915Z,9.40
2019-03-16T19:22:57.828Z,9.27
2019-03-16T19:25:27.555Z,9.38
2019-03-16T19:27:57.200Z,9.33
2019-03-16T19:30:26.836Z,9.27
2019-03-16T19:32:56.478Z,9.34
2019-03-16T19:35:26.119Z,9.22
2019-03-16T19:37:55.760Z,9.15
2019-03-16T19:40:25.883Z,8.98
2019-03-16T19:42:55.525Z,8.95
2019-03-16T19:45:25.168Z,8.91
2019-03-16T19:47:54.810Z,8.90
2019-03-16T19:50:24.570Z,8.82
2019-03-16T19:52:54.209Z,8.77
2019-03-16T19:55:23.854Z,8.72
2019-03-16T19:57:53.620Z,8.77
2019-03-16T20:00:23.254Z,8.80
2019-03-16T20:02:52.901Z,8.80
2019-03-16T20:05:22.540Z,8.84
2019-03-16T20:07:52.179Z,8.91
2019-03-16T20:10:22.575Z,9.13
2019-03-16T20:12:53.302Z,9.24
2019-03-16T20:15:23.269Z,9.34
2019-03-16T20:17:52.907Z,9.39
2019-03-16T20:20:22.550Z,9.45
2019-03-16T20:22:52.314Z,9.52
2019-03-16T20:25:21.951Z,9.61
2019-03-16T20:27:51.590Z,9.74
2019-03-16T20:30:26.915Z,9.76
2019-03-16T20:33:03.017Z,9.74
2019-03-16T20:35:24.120Z,9.73
2019-03-16T20:37:53.756Z,9.72
2019-03-16T20:40:23.535Z,9.80
2019-03-16T20:42:53.284Z,9.74
2019-03-16T20:45:23.052Z,9.73
2019-03-16T20:47:53.044Z,9.77
2019-03-16T20:50:22.695Z,9.82
2019-03-16T20:52:52.450Z,9.76
2019-03-16T20:55:22.092Z,9.68
2019-03-16T20:57:51.732Z,9.57
2019-03-16T21:00:21.379Z,9.42
2019-03-16T21:02:51.027Z,9.25
2019-03-16T21:05:20.655Z,9.09
2019-03-16T21:07:50.295Z,8.94
2019-03-16T21:10:19.945Z,8.80
2019-03-16T21:12:49.581Z,8.60
2019-03-16T21:15:19.939Z,8.56
2019-03-16T21:17:49.596Z,8.55
2019-03-16T21:20:20.432Z,8.51
2019-03-16T21:22:50.070Z,8.52
2019-03-16T21:25:19.708Z,8.38
2019-03-16T21:27:49.285Z,8.32
2019-03-16T21:30:21.639Z,8.32
2019-03-16T21:32:51.401Z,8.43
2019-03-16T21:35:20.915Z,8.49
2019-03-16T21:37:50.564Z,8.63
2019-03-16T21:40:20.326Z,8.61
2019-03-16T21:42:50.086Z,8.55
2019-03-16T21:45:19.727Z,8.58
2019-03-16T21:47:59.485Z,8.63
2019-03-16T21:50:20.806Z,8.61
2019-03-16T21:52:50.461Z,8.56
2019-03-16T21:55:20.085Z,8.56
2019-03-16T21:57:49.825Z,8.55
2019-03-16T22:00:19.633Z,8.65
2019-03-16T22:02:49.494Z,8.81
2019-03-16T22:05:19.134Z,9.05
2019-03-16T22:07:48.775Z,9.13
2019-03-16T22:10:19.017Z,9.22
2019-03-16T22:12:48.670Z,9.37
2019-03-16T22:15:18.910Z,9.41
2019-03-16T22:17:48.553Z,9.62
2019-03-16T22:20:20.106Z,9.78
2019-03-16T22:22:49.746Z,9.87
2019-03-16T22:25:19.512Z,9.86
2019-03-16T22:27:51.575Z,9.98
2019-03-16T22:30:20.479Z,9.98
2019-03-16T22:32:50.244Z,10.14
2019-03-16T22:35:19.756Z,10.15
2019-03-16T22:37:49.520Z,10.27
2019-03-16T22:40:20.843Z,10.31
2019-03-16T22:42:50.476Z,10.33
2019-03-16T22:45:20.134Z,10.37
2019-03-16T22:47:49.760Z,10.35
2019-03-16T22:50:23.018Z,10.40
2019-03-16T22:52:52.776Z,10.49
2019-03-16T22:55:22.532Z,10.53
2019-03-16T22:57:52.293Z,10.40
2019-03-16T23:00:40.538Z,10.53
2019-03-16T23:03:10.176Z,10.60
2019-03-16T23:05:39.818Z,10.62
2019-03-16T23:08:09.458Z,10.60
2019-03-16T23:10:39.098Z,10.56
2019-03-16T23:13:08.748Z,10.60
2019-03-16T23:15:38.510Z,10.60
2019-03-16T23:18:08.140Z,10.58
2019-03-16T23:20:37.782Z,10.54
2019-03-16T23:23:07.425Z,10.63
2019-03-16T23:25:37.312Z,10.66
2019-03-16T23:28:07.068Z,10.61
2019-03-16T23:30:38.272Z,10.55
2019-03-16T23:33:07.914Z,10.54
2019-03-16T23:35:37.554Z,10.55
2019-03-16T23:38:07.318Z,10.53
2019-03-16T23:40:36.954Z,10.55
2019-03-16T23:43:06.598Z,10.67
2019-03-16T23:45:36.241Z,10.66
2019-03-16T23:48:05.879Z,10.64
2019-03-16T23:50:35.764Z,10.56
2019-03-16T23:53:05.524Z,10.55
2019-03-16T23:55:35.167Z,10.53
2019-03-16T23:58:04.928Z,10.50
